sensor_id;sensor_type;location;lat;lon;timestamp;temperature;humidity
20977;DHT22;10647;51.016;3.720;2023-07-24T00:00:39;17.90;99.90
20977;DHT22;10647;51.016;3.720;2023-07-24T00:03:07;17.80;99.90
20977;DHT22;10647;51.016;3.720;2023-07-24T00:05:35;17.90;99.90
20977;DHT22;10647;51.016;3.720;2023-07-24T00:08:02;17.90;99.90
20977;DHT22;10647;51.016;3.720;2023-07-24T00:10:30;18.10;99.90
20977;DHT22;10647;51.016;3.720;2023-07-24T00:12:57;17.90;99.90
20977;DHT22;10647;51.016;3.720;2023-07-24T00:15:25;18.10;99.90
20977;DHT22;10647;51.016;3.720;2023-07-24T00:17:52;18.20;99.90
20977;DHT22;10647;51.016;3.720;2023-07-24T00:20:20;18.10;99.90
20977;DHT22;10647;51.016;3.720;2023-07-24T00:22:47;18.30;99.90
20977;DHT22;10647;51.016;3.720;2023-07-24T00:25:15;18.40;99.90
20977;DHT22;10647;51.016;3.720;2023-07-24T00:27:43;18.30;99.90
20977;DHT22;10647;51.016;3.720;2023-07-24T00:30:10;18.60;99.90
20977;DHT22;10647;51.016;3.720;2023-07-24T00:32:38;18.50;99.90
20977;DHT22;10647;51.016;3.720;2023-07-24T00:35:06;18.30;99.90
20977;DHT22;10647;51.016;3.720;2023-07-24T00:37:35;18.20;99.90
20977;DHT22;10647;51.016;3.720;2023-07-24T00:40:05;18.10;99.90
20977;DHT22;10647;51.016;3.720;2023-07-24T00:42:35;18.00;99.90
20977;DHT22;10647;51.016;3.720;2023-07-24T00:45:02;17.90;99.90
20977;DHT22;10647;51.016;3.720;2023-07-24T00:47:30;18.00;99.90
20977;DHT22;10647;51.016;3.720;2023-07-24T00:49:57;18.10;99.90
20977;DHT22;10647;51.016;3.720;2023-07-24T00:52:25;18.10;99.90
20977;DHT22;10647;51.016;3.720;2023-07-24T00:54:53;18.00;99.90
20977;DHT22;10647;51.016;3.720;2023-07-24T00:57:22;18.20;99.90
20977;DHT22;10647;51.016;3.720;2023-07-24T00:59:50;17.90;99.90
20977;DHT22;10647;51.016;3.720;2023-07-24T01:02:17;17.80;99.90
20977;DHT22;10647;51.016;3.720;2023-07-24T01:04:46;17.70;99.90
20977;DHT22;10647;51.016;3.720;2023-07-24T01:07:15;17.70;99.90
20977;DHT22;10647;51.016;3.720;2023-07-24T01:09:44;17.80;99.90
20977;DHT22;10647;51.016;3.720;2023-07-24T01:12:22;17.70;99.90
20977;DHT22;10647;51.016;3.720;2023-07-24T01:14:58;17.70;99.90
20977;DHT22;10647;51.016;3.720;2023-07-24T01:17:23;17.90;99.90
20977;DHT22;10647;51.016;3.720;2023-07-24T01:19:54;17.90;99.90
20977;DHT22;10647;51.016;3.720;2023-07-24T01:22:32;17.90;99.90
20977;DHT22;10647;51.016;3.720;2023-07-24T01:25:10;17.70;99.90
20977;DHT22;10647;51.016;3.720;2023-07-24T01:27:58;17.60;99.90
20977;DHT22;10647;51.016;3.720;2023-07-24T01:30:31;17.40;99.90
20977;DHT22;10647;51.016;3.720;2023-07-24T01:32:59;17.60;99.90
20977;DHT22;10647;51.016;3.720;2023-07-24T01:35:27;17.50;99.90
20977;DHT22;10647;51.016;3.720;2023-07-24T01:37:56;17.20;99.90
20977;DHT22;10647;51.016;3.720;2023-07-24T01:40:24;17.50;99.90
20977;DHT22;10647;51.016;3.720;2023-07-24T01:42:52;17.70;99.90
20977;DHT22;10647;51.016;3.720;2023-07-24T01:45:20;17.60;99.90
20977;DHT22;10647;51.016;3.720;2023-07-24T01:47:48;17.50;99.90
20977;DHT22;10647;51.016;3.720;2023-07-24T01:50:16;17.60;99.90
20977;DHT22;10647;51.016;3.720;2023-07-24T01:52:43;17.50;99.90
20977;DHT22;10647;51.016;3.720;2023-07-24T01:55:11;17.80;99.90
20977;DHT22;10647;51.016;3.720;2023-07-24T01:57:39;17.90;99.90
20977;DHT22;10647;51.016;3.720;2023-07-24T02:00:07;17.80;99.90
20977;DHT22;10647;51.016;3.720;2023-07-24T02:02:35;17.70;99.90
20977;DHT22;10647;51.016;3.720;2023-07-24T02:05:02;17.90;99.90
20977;DHT22;10647;51.016;3.720;2023-07-24T02:07:30;18.10;99.90
20977;DHT22;10647;51.016;3.720;2023-07-24T02:09:57;17.90;99.90
20977;DHT22;10647;51.016;3.720;2023-07-24T02:12:26;17.90;99.90
20977;DHT22;10647;51.016;3.720;2023-07-24T02:14:53;18.00;99.90
20977;DHT22;10647;51.016;3.720;2023-07-24T02:17:23;18.30;99.90
20977;DHT22;10647;51.016;3.720;2023-07-24T02:19:51;18.40;99.90
20977;DHT22;10647;51.016;3.720;2023-07-24T02:22:18;18.20;99.90
20977;DHT22;10647;51.016;3.720;2023-07-24T02:24:46;18.00;99.90
20977;DHT22;10647;51.016;3.720;2023-07-24T02:27:29;18.10;99.90
20977;DHT22;10647;51.016;3.720;2023-07-24T02:30:17;18.10;99.90
20977;DHT22;10647;51.016;3.720;2023-07-24T02:32:45;17.90;99.90
20977;DHT22;10647;51.016;3.720;2023-07-24T02:35:14;17.60;99.90
20977;DHT22;10647;51.016;3.720;2023-07-24T02:37:41;17.70;99.90
20977;DHT22;10647;51.016;3.720;2023-07-24T02:40:09;17.20;99.90
20977;DHT22;10647;51.016;3.720;2023-07-24T02:42:37;16.60;99.90
20977;DHT22;10647;51.016;3.720;2023-07-24T02:45:05;16.60;99.90
20977;DHT22;10647;51.016;3.720;2023-07-24T02:47:34;16.50;99.90
20977;DHT22;10647;51.016;3.720;2023-07-24T02:50:04;16.50;99.90
20977;DHT22;10647;51.016;3.720;2023-07-24T02:52:33;16.50;99.90
20977;DHT22;10647;51.016;3.720;2023-07-24T02:55:02;16.60;99.90
20977;DHT22;10647;51.016;3.720;2023-07-24T02:57:30;17.10;99.90
20977;DHT22;10647;51.016;3.720;2023-07-24T02:59:58;17.30;99.90
20977;DHT22;10647;51.016;3.720;2023-07-24T03:02:25;17.40;99.90
20977;DHT22;10647;51.016;3.720;2023-07-24T03:04:53;17.60;99.90
20977;DHT22;10647;51.016;3.720;2023-07-24T03:07:20;17.30;99.90
20977;DHT22;10647;51.016;3.720;2023-07-24T03:09:48;17.30;99.90
20977;DHT22;10647;51.016;3.720;2023-07-24T03:12:17;17.30;99.90
20977;DHT22;10647;51.016;3.720;2023-07-24T03:14:45;17.10;99.90
20977;DHT22;10647;51.016;3.720;2023-07-24T03:17:12;17.00;99.90
20977;DHT22;10647;51.016;3.720;2023-07-24T03:19:41;16.90;99.90
20977;DHT22;10647;51.016;3.720;2023-07-24T03:22:09;17.10;99.90
20977;DHT22;10647;51.016;3.720;2023-07-24T03:24:37;17.30;99.90
20977;DHT22;10647;51.016;3.720;2023-07-24T03:27:04;17.30;99.90
20977;DHT22;10647;51.016;3.720;2023-07-24T03:29:32;17.20;99.90
20977;DHT22;10647;51.016;3.720;2023-07-24T03:32:00;17.10;99.90
20977;DHT22;10647;51.016;3.720;2023-07-24T03:34:27;17.10;99.90
20977;DHT22;10647;51.016;3.720;2023-07-24T03:36:55;17.10;99.90
20977;DHT22;10647;51.016;3.720;2023-07-24T03:39:23;16.90;99.90
20977;DHT22;10647;51.016;3.720;2023-07-24T03:41:51;17.10;99.90
20977;DHT22;10647;51.016;3.720;2023-07-24T03:44:18;17.10;99.90
20977;DHT22;10647;51.016;3.720;2023-07-24T03:46:46;16.90;99.90
20977;DHT22;10647;51.016;3.720;2023-07-24T03:49:13;16.90;99.90
20977;DHT22;10647;51.016;3.720;2023-07-24T03:51:41;16.90;99.90
20977;DHT22;10647;51.016;3.720;2023-07-24T03:54:08;17.10;99.90
20977;DHT22;10647;51.016;3.720;2023-07-24T03:56:36;16.60;99.90
20977;DHT22;10647;51.016;3.720;2023-07-24T03:59:05;16.40;99.90
20977;DHT22;10647;51.016;3.720;2023-07-24T04:01:32;16.50;99.90
20977;DHT22;10647;51.016;3.720;2023-07-24T04:04:00;16.60;99.90
20977;DHT22;10647;51.016;3.720;2023-07-24T04:06:27;16.40;99.90
20977;DHT22;10647;51.016;3.720;2023-07-24T04:08:55;16.40;99.90
20977;DHT22;10647;51.016;3.720;2023-07-24T04:11:22;16.50;99.90
20977;DHT22;10647;51.016;3.720;2023-07-24T04:13:50;16.60;99.90
20977;DHT22;10647;51.016;3.720;2023-07-24T04:16:17;16.50;99.90
20977;DHT22;10647;51.016;3.720;2023-07-24T04:18:45;16.50;99.90
20977;DHT22;10647;51.016;3.720;2023-07-24T04:21:13;16.80;99.90
20977;DHT22;10647;51.016;3.720;2023-07-24T04:23:40;16.80;99.90
20977;DHT22;10647;51.016;3.720;2023-07-24T04:26:09;16.90;99.90
20977;DHT22;10647;51.016;3.720;2023-07-24T04:28:36;16.60;99.90
20977;DHT22;10647;51.016;3.720;2023-07-24T04:31:04;16.50;99.90
20977;DHT22;10647;51.016;3.720;2023-07-24T04:33:31;16.60;99.90
20977;DHT22;10647;51.016;3.720;2023-07-24T04:35:59;16.60;99.90
20977;DHT22;10647;51.016;3.720;2023-07-24T04:38:26;16.70;99.90
20977;DHT22;10647;51.016;3.720;2023-07-24T04:40:55;17.00;99.90
20977;DHT22;10647;51.016;3.720;2023-07-24T04:43:22;17.00;99.90
20977;DHT22;10647;51.016;3.720;2023-07-24T04:45:50;17.00;99.90
20977;DHT22;10647;51.016;3.720;2023-07-24T04:48:17;17.20;99.90
20977;DHT22;10647;51.016;3.720;2023-07-24T04:50:45;17.20;99.90
20977;DHT22;10647;51.016;3.720;2023-07-24T04:53:12;17.20;99.90
20977;DHT22;10647;51.016;3.720;2023-07-24T04:55:40;16.90;99.90
20977;DHT22;10647;51.016;3.720;2023-07-24T04:58:07;17.00;99.90
20977;DHT22;10647;51.016;3.720;2023-07-24T05:00:35;16.80;99.90
20977;DHT22;10647;51.016;3.720;2023-07-24T05:03:02;17.00;99.90
20977;DHT22;10647;51.016;3.720;2023-07-24T05:05:30;16.80;99.90
20977;DHT22;10647;51.016;3.720;2023-07-24T05:07:58;17.10;99.90
20977;DHT22;10647;51.016;3.720;2023-07-24T05:10:25;17.20;99.90
20977;DHT22;10647;51.016;3.720;2023-07-24T05:12:53;17.40;99.90
20977;DHT22;10647;51.016;3.720;2023-07-24T05:15:22;17.40;99.90
20977;DHT22;10647;51.016;3.720;2023-07-24T05:17:51;17.30;99.90
20977;DHT22;10647;51.016;3.720;2023-07-24T05:20:18;17.10;99.90
20977;DHT22;10647;51.016;3.720;2023-07-24T05:22:47;17.00;99.90
20977;DHT22;10647;51.016;3.720;2023-07-24T05:25:14;16.90;99.90
20977;DHT22;10647;51.016;3.720;2023-07-24T05:27:42;17.10;99.90
20977;DHT22;10647;51.016;3.720;2023-07-24T05:30:09;17.20;99.90
20977;DHT22;10647;51.016;3.720;2023-07-24T05:32:37;17.10;99.90
20977;DHT22;10647;51.016;3.720;2023-07-24T05:35:05;17.00;99.90
20977;DHT22;10647;51.016;3.720;2023-07-24T05:37:32;17.10;99.90
20977;DHT22;10647;51.016;3.720;2023-07-24T05:40:00;17.20;99.90
20977;DHT22;10647;51.016;3.720;2023-07-24T05:42:27;17.40;99.90
20977;DHT22;10647;51.016;3.720;2023-07-24T05:44:55;17.20;99.90
20977;DHT22;10647;51.016;3.720;2023-07-24T05:47:22;17.30;99.90
20977;DHT22;10647;51.016;3.720;2023-07-24T05:49:50;17.70;99.90
20977;DHT22;10647;51.016;3.720;2023-07-24T05:52:17;17.70;99.90
20977;DHT22;10647;51.016;3.720;2023-07-24T05:54:45;17.70;99.90
20977;DHT22;10647;51.016;3.720;2023-07-24T05:57:12;17.70;99.90
20977;DHT22;10647;51.016;3.720;2023-07-24T05:59:40;17.60;99.90
20977;DHT22;10647;51.016;3.720;2023-07-24T06:02:07;17.50;99.90
20977;DHT22;10647;51.016;3.720;2023-07-24T06:04:36;17.80;99.90
20977;DHT22;10647;51.016;3.720;2023-07-24T06:07:03;17.70;99.90
20977;DHT22;10647;51.016;3.720;2023-07-24T06:09:31;17.90;99.90
20977;DHT22;10647;51.016;3.720;2023-07-24T06:11:58;18.00;99.90
20977;DHT22;10647;51.016;3.720;2023-07-24T06:14:26;17.80;99.90
20977;DHT22;10647;51.016;3.720;2023-07-24T06:16:53;17.80;99.90
20977;DHT22;10647;51.016;3.720;2023-07-24T06:19:21;17.90;99.90
20977;DHT22;10647;51.016;3.720;2023-07-24T06:21:48;18.10;99.90
20977;DHT22;10647;51.016;3.720;2023-07-24T06:24:16;18.20;99.90
20977;DHT22;10647;51.016;3.720;2023-07-24T06:26:44;17.90;99.90
20977;DHT22;10647;51.016;3.720;2023-07-24T06:29:12;17.80;99.90
20977;DHT22;10647;51.016;3.720;2023-07-24T06:31:41;17.90;99.90
20977;DHT22;10647;51.016;3.720;2023-07-24T06:34:08;18.10;99.90
20977;DHT22;10647;51.016;3.720;2023-07-24T06:36:36;18.10;99.90
20977;DHT22;10647;51.016;3.720;2023-07-24T06:39:03;17.90;99.90
20977;DHT22;10647;51.016;3.720;2023-07-24T06:41:31;17.80;99.90
20977;DHT22;10647;51.016;3.720;2023-07-24T06:43:58;17.90;99.90
20977;DHT22;10647;51.016;3.720;2023-07-24T06:46:26;17.80;99.90
20977;DHT22;10647;51.016;3.720;2023-07-24T06:48:54;17.80;99.90
20977;DHT22;10647;51.016;3.720;2023-07-24T06:51:22;17.40;99.90
20977;DHT22;10647;51.016;3.720;2023-07-24T06:53:49;17.70;99.90
20977;DHT22;10647;51.016;3.720;2023-07-24T06:56:19;17.70;99.90
20977;DHT22;10647;51.016;3.720;2023-07-24T06:58:47;17.70;99.90
20977;DHT22;10647;51.016;3.720;2023-07-24T07:01:14;17.50;99.90
20977;DHT22;10647;51.016;3.720;2023-07-24T07:03:43;17.50;99.90
20977;DHT22;10647;51.016;3.720;2023-07-24T07:06:10;17.60;99.90
20977;DHT22;10647;51.016;3.720;2023-07-24T07:08:40;17.80;99.90
20977;DHT22;10647;51.016;3.720;2023-07-24T07:11:07;17.60;99.90
20977;DHT22;10647;51.016;3.720;2023-07-24T07:13:35;17.60;99.90
20977;DHT22;10647;51.016;3.720;2023-07-24T07:16:02;17.70;99.90
20977;DHT22;10647;51.016;3.720;2023-07-24T07:18:30;17.80;99.90
20977;DHT22;10647;51.016;3.720;2023-07-24T07:20:57;17.90;99.90
20977;DHT22;10647;51.016;3.720;2023-07-24T07:23:25;18.20;99.90
20977;DHT22;10647;51.016;3.720;2023-07-24T07:25:53;18.90;99.90
20977;DHT22;10647;51.016;3.720;2023-07-24T07:28:20;18.70;99.90
20977;DHT22;10647;51.016;3.720;2023-07-24T07:30:48;19.30;99.90
20977;DHT22;10647;51.016;3.720;2023-07-24T07:33:15;19.40;99.90
20977;DHT22;10647;51.016;3.720;2023-07-24T07:35:43;19.10;99.90
20977;DHT22;10647;51.016;3.720;2023-07-24T07:38:10;18.90;99.90
20977;DHT22;10647;51.016;3.720;2023-07-24T07:40:38;19.10;99.90
20977;DHT22;10647;51.016;3.720;2023-07-24T07:43:06;19.30;99.90
20977;DHT22;10647;51.016;3.720;2023-07-24T07:45:33;19.20;99.90
20977;DHT22;10647;51.016;3.720;2023-07-24T07:48:01;18.70;99.90
20977;DHT22;10647;51.016;3.720;2023-07-24T07:50:28;18.70;99.90
20977;DHT22;10647;51.016;3.720;2023-07-24T07:52:56;19.30;99.90
20977;DHT22;10647;51.016;3.720;2023-07-24T07:55:23;19.20;99.90
20977;DHT22;10647;51.016;3.720;2023-07-24T07:57:51;19.20;99.90
20977;DHT22;10647;51.016;3.720;2023-07-24T08:00:18;19.50;99.90
20977;DHT22;10647;51.016;3.720;2023-07-24T08:02:46;19.70;99.90
20977;DHT22;10647;51.016;3.720;2023-07-24T08:05:14;19.10;99.90
20977;DHT22;10647;51.016;3.720;2023-07-24T08:07:42;19.60;99.90
20977;DHT22;10647;51.016;3.720;2023-07-24T08:10:09;19.70;99.90
20977;DHT22;10647;51.016;3.720;2023-07-24T08:12:37;19.80;99.90
20977;DHT22;10647;51.016;3.720;2023-07-24T08:15:05;19.10;99.90
20977;DHT22;10647;51.016;3.720;2023-07-24T08:17:33;18.70;99.90
20977;DHT22;10647;51.016;3.720;2023-07-24T08:20:01;19.20;99.90
20977;DHT22;10647;51.016;3.720;2023-07-24T08:22:29;19.30;99.90
20977;DHT22;10647;51.016;3.720;2023-07-24T08:24:57;19.10;99.90
20977;DHT22;10647;51.016;3.720;2023-07-24T08:27:24;19.50;99.90
20977;DHT22;10647;51.016;3.720;2023-07-24T08:29:52;20.30;99.90
20977;DHT22;10647;51.016;3.720;2023-07-24T08:32:20;19.80;99.90
20977;DHT22;10647;51.016;3.720;2023-07-24T08:34:47;19.40;99.90
20977;DHT22;10647;51.016;3.720;2023-07-24T08:47:06;21.10;99.90
20977;DHT22;10647;51.016;3.720;2023-07-24T08:49:35;19.80;99.90
20977;DHT22;10647;51.016;3.720;2023-07-24T08:52:05;20.30;99.90
20977;DHT22;10647;51.016;3.720;2023-07-24T08:54:40;20.70;99.90
20977;DHT22;10647;51.016;3.720;2023-07-24T08:57:06;20.90;99.90
20977;DHT22;10647;51.016;3.720;2023-07-24T08:59:34;19.80;99.90
20977;DHT22;10647;51.016;3.720;2023-07-24T09:02:02;19.80;99.90
20977;DHT22;10647;51.016;3.720;2023-07-24T09:04:29;19.80;99.90
20977;DHT22;10647;51.016;3.720;2023-07-24T09:06:57;20.20;99.90
20977;DHT22;10647;51.016;3.720;2023-07-24T09:09:31;19.80;99.90
20977;DHT22;10647;51.016;3.720;2023-07-24T09:12:02;20.50;99.90
20977;DHT22;10647;51.016;3.720;2023-07-24T09:14:29;20.30;99.90
20977;DHT22;10647;51.016;3.720;2023-07-24T09:17:10;20.60;99.90
20977;DHT22;10647;51.016;3.720;2023-07-24T09:19:39;20.90;99.90
20977;DHT22;10647;51.016;3.720;2023-07-24T09:22:14;20.80;99.90
20977;DHT22;10647;51.016;3.720;2023-07-24T09:24:52;21.10;99.90
20977;DHT22;10647;51.016;3.720;2023-07-24T09:27:20;20.70;99.90
20977;DHT22;10647;51.016;3.720;2023-07-24T09:29:48;20.40;99.90
20977;DHT22;10647;51.016;3.720;2023-07-24T09:32:23;21.20;99.90
20977;DHT22;10647;51.016;3.720;2023-07-24T09:34:51;21.30;99.90
20977;DHT22;10647;51.016;3.720;2023-07-24T09:37:29;20.40;99.90
20977;DHT22;10647;51.016;3.720;2023-07-24T09:39:56;20.80;99.90
20977;DHT22;10647;51.016;3.720;2023-07-24T09:42:35;21.70;99.90
20977;DHT22;10647;51.016;3.720;2023-07-24T09:45:05;21.80;99.90
20977;DHT22;10647;51.016;3.720;2023-07-24T09:47:35;21.30;99.90
20977;DHT22;10647;51.016;3.720;2023-07-24T09:50:07;22.20;99.90
20977;DHT22;10647;51.016;3.720;2023-07-24T09:52:42;22.20;99.90
20977;DHT22;10647;51.016;3.720;2023-07-24T09:55:29;22.20;99.90
20977;DHT22;10647;51.016;3.720;2023-07-24T09:57:54;21.60;99.90
20977;DHT22;10647;51.016;3.720;2023-07-24T10:00:24;21.40;99.90
20977;DHT22;10647;51.016;3.720;2023-07-24T10:02:54;21.00;99.90
20977;DHT22;10647;51.016;3.720;2023-07-24T10:05:25;21.30;99.90
20977;DHT22;10647;51.016;3.720;2023-07-24T10:07:52;21.20;99.90
20977;DHT22;10647;51.016;3.720;2023-07-24T10:10:21;21.20;99.90
20977;DHT22;10647;51.016;3.720;2023-07-24T10:12:49;20.90;99.90
20977;DHT22;10647;51.016;3.720;2023-07-24T10:15:18;21.50;99.90
20977;DHT22;10647;51.016;3.720;2023-07-24T10:17:45;21.20;99.90
20977;DHT22;10647;51.016;3.720;2023-07-24T10:20:15;21.40;99.90
20977;DHT22;10647;51.016;3.720;2023-07-24T10:22:42;22.00;99.90
20977;DHT22;10647;51.016;3.720;2023-07-24T10:25:10;23.20;99.90
20977;DHT22;10647;51.016;3.720;2023-07-24T10:27:45;23.10;99.90
20977;DHT22;10647;51.016;3.720;2023-07-24T10:30:13;23.20;99.90
20977;DHT22;10647;51.016;3.720;2023-07-24T10:32:46;22.30;99.90
20977;DHT22;10647;51.016;3.720;2023-07-24T10:35:15;21.60;99.90
20977;DHT22;10647;51.016;3.720;2023-07-24T10:37:44;21.80;99.90
20977;DHT22;10647;51.016;3.720;2023-07-24T10:40:19;22.20;99.90
20977;DHT22;10647;51.016;3.720;2023-07-24T10:42:58;22.90;99.90
20977;DHT22;10647;51.016;3.720;2023-07-24T10:45:16;23.60;99.90
20977;DHT22;10647;51.016;3.720;2023-07-24T10:47:44;23.90;99.90
20977;DHT22;10647;51.016;3.720;2023-07-24T10:50:11;23.50;99.90
20977;DHT22;10647;51.016;3.720;2023-07-24T10:52:39;23.60;99.90
20977;DHT22;10647;51.016;3.720;2023-07-24T10:55:07;23.50;99.90
20977;DHT22;10647;51.016;3.720;2023-07-24T10:57:35;23.70;99.90
20977;DHT22;10647;51.016;3.720;2023-07-24T11:00:02;24.10;99.90
20977;DHT22;10647;51.016;3.720;2023-07-24T11:02:32;23.30;99.90
20977;DHT22;10647;51.016;3.720;2023-07-24T11:04:59;22.70;99.90
20977;DHT22;10647;51.016;3.720;2023-07-24T11:07:31;22.30;99.90
20977;DHT22;10647;51.016;3.720;2023-07-24T11:09:58;22.70;99.90
20977;DHT22;10647;51.016;3.720;2023-07-24T11:12:25;23.10;99.90
20977;DHT22;10647;51.016;3.720;2023-07-24T11:14:56;23.10;99.90
20977;DHT22;10647;51.016;3.720;2023-07-24T11:17:35;22.30;99.90
20977;DHT22;10647;51.016;3.720;2023-07-24T11:20:10;23.00;99.90
20977;DHT22;10647;51.016;3.720;2023-07-24T11:22:42;23.50;99.90
20977;DHT22;10647;51.016;3.720;2023-07-24T11:25:16;24.50;99.90
20977;DHT22;10647;51.016;3.720;2023-07-24T11:27:44;23.80;99.90
20977;DHT22;10647;51.016;3.720;2023-07-24T11:30:19;23.80;99.90
20977;DHT22;10647;51.016;3.720;2023-07-24T11:32:50;23.60;99.90
20977;DHT22;10647;51.016;3.720;2023-07-24T11:35:20;22.60;99.90
20977;DHT22;10647;51.016;3.720;2023-07-24T11:37:48;23.00;99.90
20977;DHT22;10647;51.016;3.720;2023-07-24T11:40:29;22.80;99.90
20977;DHT22;10647;51.016;3.720;2023-07-24T11:42:50;22.20;99.90
20977;DHT22;10647;51.016;3.720;2023-07-24T11:45:18;22.40;99.90
20977;DHT22;10647;51.016;3.720;2023-07-24T11:47:48;23.40;99.90
20977;DHT22;10647;51.016;3.720;2023-07-24T11:50:17;24.10;99.90
20977;DHT22;10647;51.016;3.720;2023-07-24T11:52:47;25.10;99.90
20977;DHT22;10647;51.016;3.720;2023-07-24T11:55:30;26.50;99.90
20977;DHT22;10647;51.016;3.720;2023-07-24T11:57:56;24.90;99.90
20977;DHT22;10647;51.016;3.720;2023-07-24T12:00:33;24.30;99.90
20977;DHT22;10647;51.016;3.720;2023-07-24T12:03:02;23.90;99.90
20977;DHT22;10647;51.016;3.720;2023-07-24T12:05:42;23.80;99.90
20977;DHT22;10647;51.016;3.720;2023-07-24T12:08:10;23.20;99.90
20977;DHT22;10647;51.016;3.720;2023-07-24T12:10:40;22.60;99.90
20977;DHT22;10647;51.016;3.720;2023-07-24T12:13:08;22.10;99.90
20977;DHT22;10647;51.016;3.720;2023-07-24T12:15:37;22.00;99.90
20977;DHT22;10647;51.016;3.720;2023-07-24T12:18:05;22.30;99.90
20977;DHT22;10647;51.016;3.720;2023-07-24T12:20:34;23.00;99.90
20977;DHT22;10647;51.016;3.720;2023-07-24T12:23:02;23.80;99.90
20977;DHT22;10647;51.016;3.720;2023-07-24T12:25:31;23.60;99.90
20977;DHT22;10647;51.016;3.720;2023-07-24T12:27:59;24.60;99.90
20977;DHT22;10647;51.016;3.720;2023-07-24T12:30:27;25.40;99.90
20977;DHT22;10647;51.016;3.720;2023-07-24T12:32:54;25.20;99.90
20977;DHT22;10647;51.016;3.720;2023-07-24T12:35:22;24.50;99.90
20977;DHT22;10647;51.016;3.720;2023-07-24T12:37:49;23.50;99.90
20977;DHT22;10647;51.016;3.720;2023-07-24T12:40:18;23.80;99.90
20977;DHT22;10647;51.016;3.720;2023-07-24T12:42:45;25.30;99.90
20977;DHT22;10647;51.016;3.720;2023-07-24T12:45:13;25.60;99.90
20977;DHT22;10647;51.016;3.720;2023-07-24T12:47:41;26.00;99.90
20977;DHT22;10647;51.016;3.720;2023-07-24T12:50:08;26.90;99.90
20977;DHT22;10647;51.016;3.720;2023-07-24T12:52:36;26.70;99.90
20977;DHT22;10647;51.016;3.720;2023-07-24T12:55:04;25.30;99.90
20977;DHT22;10647;51.016;3.720;2023-07-24T12:57:32;24.30;99.90
20977;DHT22;10647;51.016;3.720;2023-07-24T12:59:59;24.60;99.90
20977;DHT22;10647;51.016;3.720;2023-07-24T13:02:27;24.80;99.90
20977;DHT22;10647;51.016;3.720;2023-07-24T13:04:54;24.30;99.90
20977;DHT22;10647;51.016;3.720;2023-07-24T13:07:22;23.50;99.90
20977;DHT22;10647;51.016;3.720;2023-07-24T13:09:50;22.90;99.90
20977;DHT22;10647;51.016;3.720;2023-07-24T13:12:17;22.10;99.90
20977;DHT22;10647;51.016;3.720;2023-07-24T13:14:45;21.70;99.90
20977;DHT22;10647;51.016;3.720;2023-07-24T13:17:12;21.30;99.90
20977;DHT22;10647;51.016;3.720;2023-07-24T13:19:40;20.80;99.90
20977;DHT22;10647;51.016;3.720;2023-07-24T13:22:07;20.60;99.90
20977;DHT22;10647;51.016;3.720;2023-07-24T13:24:35;20.50;99.90
20977;DHT22;10647;51.016;3.720;2023-07-24T13:27:08;20.30;99.90
20977;DHT22;10647;51.016;3.720;2023-07-24T13:29:35;20.20;99.90
20977;DHT22;10647;51.016;3.720;2023-07-24T13:32:03;19.40;99.90
20977;DHT22;10647;51.016;3.720;2023-07-24T13:34:37;18.80;99.90
20977;DHT22;10647;51.016;3.720;2023-07-24T13:37:05;18.90;99.90
20977;DHT22;10647;51.016;3.720;2023-07-24T13:39:33;19.00;99.90
20977;DHT22;10647;51.016;3.720;2023-07-24T13:42:01;18.80;99.90
20977;DHT22;10647;51.016;3.720;2023-07-24T13:44:29;18.80;99.90
20977;DHT22;10647;51.016;3.720;2023-07-24T13:46:57;18.80;99.90
20977;DHT22;10647;51.016;3.720;2023-07-24T13:49:24;18.70;99.90
20977;DHT22;10647;51.016;3.720;2023-07-24T13:51:52;18.90;99.90
20977;DHT22;10647;51.016;3.720;2023-07-24T13:54:19;18.60;99.90
20977;DHT22;10647;51.016;3.720;2023-07-24T13:56:47;18.60;99.90
20977;DHT22;10647;51.016;3.720;2023-07-24T13:59:14;18.60;99.90
20977;DHT22;10647;51.016;3.720;2023-07-24T14:01:42;18.50;99.90
20977;DHT22;10647;51.016;3.720;2023-07-24T14:04:09;18.70;99.90
20977;DHT22;10647;51.016;3.720;2023-07-24T14:06:38;19.00;99.90
20977;DHT22;10647;51.016;3.720;2023-07-24T14:09:06;19.60;99.90
20977;DHT22;10647;51.016;3.720;2023-07-24T14:11:33;20.00;99.90
20977;DHT22;10647;51.016;3.720;2023-07-24T14:14:01;19.80;99.90
20977;DHT22;10647;51.016;3.720;2023-07-24T14:16:28;20.20;99.90
20977;DHT22;10647;51.016;3.720;2023-07-24T14:18:56;20.80;99.90
20977;DHT22;10647;51.016;3.720;2023-07-24T14:21:23;20.70;99.90
20977;DHT22;10647;51.016;3.720;2023-07-24T14:23:51;21.20;99.90
20977;DHT22;10647;51.016;3.720;2023-07-24T14:26:18;22.30;99.90
20977;DHT22;10647;51.016;3.720;2023-07-24T14:28:46;24.60;99.90
20977;DHT22;10647;51.016;3.720;2023-07-24T14:31:14;25.90;99.90
20977;DHT22;10647;51.016;3.720;2023-07-24T14:33:42;27.30;99.90
20977;DHT22;10647;51.016;3.720;2023-07-24T14:36:09;29.00;99.90
20977;DHT22;10647;51.016;3.720;2023-07-24T14:38:37;29.40;99.90
20977;DHT22;10647;51.016;3.720;2023-07-24T14:41:04;28.70;99.90
20977;DHT22;10647;51.016;3.720;2023-07-24T14:43:32;24.70;99.90
20977;DHT22;10647;51.016;3.720;2023-07-24T14:45:59;24.20;99.90
20977;DHT22;10647;51.016;3.720;2023-07-24T14:48:27;24.40;99.90
20977;DHT22;10647;51.016;3.720;2023-07-24T14:50:54;23.40;99.90
20977;DHT22;10647;51.016;3.720;2023-07-24T14:53:22;21.70;99.90
20977;DHT22;10647;51.016;3.720;2023-07-24T14:55:50;21.20;99.90
20977;DHT22;10647;51.016;3.720;2023-07-24T14:58:17;21.50;99.90
20977;DHT22;10647;51.016;3.720;2023-07-24T15:00:45;21.90;99.90
20977;DHT22;10647;51.016;3.720;2023-07-24T15:03:12;22.10;99.90
20977;DHT22;10647;51.016;3.720;2023-07-24T15:05:40;24.70;99.90
20977;DHT22;10647;51.016;3.720;2023-07-24T15:08:07;25.00;99.90
20977;DHT22;10647;51.016;3.720;2023-07-24T15:10:35;23.20;99.90
20977;DHT22;10647;51.016;3.720;2023-07-24T15:13:02;21.60;99.90
20977;DHT22;10647;51.016;3.720;2023-07-24T15:15:30;20.60;99.90
20977;DHT22;10647;51.016;3.720;2023-07-24T15:17:59;20.80;99.90
20977;DHT22;10647;51.016;3.720;2023-07-24T15:20:27;20.50;99.90
20977;DHT22;10647;51.016;3.720;2023-07-24T15:22:54;21.30;99.90
20977;DHT22;10647;51.016;3.720;2023-07-24T15:25:22;22.40;99.90
20977;DHT22;10647;51.016;3.720;2023-07-24T15:27:49;24.30;99.90
20977;DHT22;10647;51.016;3.720;2023-07-24T15:30:17;23.60;99.90
20977;DHT22;10647;51.016;3.720;2023-07-24T15:32:44;23.20;99.90
20977;DHT22;10647;51.016;3.720;2023-07-24T15:35:12;23.20;99.90
20977;DHT22;10647;51.016;3.720;2023-07-24T15:37:40;23.40;99.90
20977;DHT22;10647;51.016;3.720;2023-07-24T15:40:07;23.80;99.90
20977;DHT22;10647;51.016;3.720;2023-07-24T15:42:35;23.90;99.90
20977;DHT22;10647;51.016;3.720;2023-07-24T15:45:03;23.00;99.90
20977;DHT22;10647;51.016;3.720;2023-07-24T15:47:31;22.10;99.90